sensor_id;sensor_type;location;lat;lon;timestamp;temperature;humidity
26691;DHT22;14307;51.718;8.938;2023-08-01T00:00:27;15.80;99.90
26691;DHT22;14307;51.718;8.938;2023-08-01T00:02:54;15.90;99.90
26691;DHT22;14307;51.718;8.938;2023-08-01T00:05:21;15.80;99.90
26691;DHT22;14307;51.718;8.938;2023-08-01T00:07:48;15.80;99.90
26691;DHT22;14307;51.718;8.938;2023-08-01T00:10:15;15.90;99.90
26691;DHT22;14307;51.718;8.938;2023-08-01T00:12:43;15.90;99.90
26691;DHT22;14307;51.718;8.938;2023-08-01T00:15:10;15.90;99.90
26691;DHT22;14307;51.718;8.938;2023-08-01T00:17:37;15.90;99.90
26691;DHT22;14307;51.718;8.938;2023-08-01T00:20:05;15.90;99.90
26691;DHT22;14307;51.718;8.938;2023-08-01T00:22:32;15.90;99.90
26691;DHT22;14307;51.718;8.938;2023-08-01T00:24:59;15.90;99.90
26691;DHT22;14307;51.718;8.938;2023-08-01T00:27:25;15.90;99.90
26691;DHT22;14307;51.718;8.938;2023-08-01T00:29:53;15.80;99.90
26691;DHT22;14307;51.718;8.938;2023-08-01T00:32:19;15.70;99.90
26691;DHT22;14307;51.718;8.938;2023-08-01T00:34:46;15.80;99.90
26691;DHT22;14307;51.718;8.938;2023-08-01T00:37:13;15.80;99.90
26691;DHT22;14307;51.718;8.938;2023-08-01T00:39:40;15.70;99.90
26691;DHT22;14307;51.718;8.938;2023-08-01T00:42:07;15.80;99.90
26691;DHT22;14307;51.718;8.938;2023-08-01T00:44:33;15.80;99.90
26691;DHT22;14307;51.718;8.938;2023-08-01T00:47:00;15.80;99.90
26691;DHT22;14307;51.718;8.938;2023-08-01T00:49:27;15.80;99.90
26691;DHT22;14307;51.718;8.938;2023-08-01T00:51:54;15.70;99.90
26691;DHT22;14307;51.718;8.938;2023-08-01T00:54:21;15.70;99.90
26691;DHT22;14307;51.718;8.938;2023-08-01T00:56:48;15.60;99.90
26691;DHT22;14307;51.718;8.938;2023-08-01T00:59:15;15.60;99.90
26691;DHT22;14307;51.718;8.938;2023-08-01T01:01:42;15.60;99.90
26691;DHT22;14307;51.718;8.938;2023-08-01T01:04:09;15.50;99.90
26691;DHT22;14307;51.718;8.938;2023-08-01T01:09:29;15.60;99.90
26691;DHT22;14307;51.718;8.938;2023-08-01T01:11:59;15.50;99.90
26691;DHT22;14307;51.718;8.938;2023-08-01T01:14:27;15.50;99.90
26691;DHT22;14307;51.718;8.938;2023-08-01T01:16:55;15.40;99.90
26691;DHT22;14307;51.718;8.938;2023-08-01T01:19:22;15.40;99.90
26691;DHT22;14307;51.718;8.938;2023-08-01T01:22:17;15.40;99.90
26691;DHT22;14307;51.718;8.938;2023-08-01T01:24:46;15.40;99.90
26691;DHT22;14307;51.718;8.938;2023-08-01T01:27:16;15.40;99.90
26691;DHT22;14307;51.718;8.938;2023-08-01T01:29:43;15.40;99.90
26691;DHT22;14307;51.718;8.938;2023-08-01T01:32:11;15.40;99.90
26691;DHT22;14307;51.718;8.938;2023-08-01T01:34:38;15.50;99.90
26691;DHT22;14307;51.718;8.938;2023-08-01T01:37:05;15.50;99.90
26691;DHT22;14307;51.718;8.938;2023-08-01T01:39:32;15.60;99.90
26691;DHT22;14307;51.718;8.938;2023-08-01T01:41:59;15.70;99.90
26691;DHT22;14307;51.718;8.938;2023-08-01T01:44:26;15.80;99.90
26691;DHT22;14307;51.718;8.938;2023-08-01T01:46:52;15.70;99.90
26691;DHT22;14307;51.718;8.938;2023-08-01T01:49:19;15.70;99.90
26691;DHT22;14307;51.718;8.938;2023-08-01T01:51:46;15.80;99.90
26691;DHT22;14307;51.718;8.938;2023-08-01T01:54:13;15.80;99.90
26691;DHT22;14307;51.718;8.938;2023-08-01T01:56:40;15.80;99.90
26691;DHT22;14307;51.718;8.938;2023-08-01T01:59:07;15.80;99.90
26691;DHT22;14307;51.718;8.938;2023-08-01T02:01:34;15.90;99.90
26691;DHT22;14307;51.718;8.938;2023-08-01T02:04:01;15.80;99.90
26691;DHT22;14307;51.718;8.938;2023-08-01T02:06:29;15.80;99.90
26691;DHT22;14307;51.718;8.938;2023-08-01T02:08:56;15.80;99.90
26691;DHT22;14307;51.718;8.938;2023-08-01T02:11:24;15.80;99.90
26691;DHT22;14307;51.718;8.938;2023-08-01T02:13:51;15.70;99.90
26691;DHT22;14307;51.718;8.938;2023-08-01T02:16:18;15.50;99.90
26691;DHT22;14307;51.718;8.938;2023-08-01T02:18:45;15.30;99.90
26691;DHT22;14307;51.718;8.938;2023-08-01T02:21:12;15.20;99.90
26691;DHT22;14307;51.718;8.938;2023-08-01T02:23:39;15.20;99.90
26691;DHT22;14307;51.718;8.938;2023-08-01T02:26:06;15.20;99.90
26691;DHT22;14307;51.718;8.938;2023-08-01T02:28:34;15.20;99.90
26691;DHT22;14307;51.718;8.938;2023-08-01T02:31:01;15.10;99.90
26691;DHT22;14307;51.718;8.938;2023-08-01T02:33:28;15.10;99.90
26691;DHT22;14307;51.718;8.938;2023-08-01T02:35:55;15.10;99.90
26691;DHT22;14307;51.718;8.938;2023-08-01T02:38:22;15.10;99.90
26691;DHT22;14307;51.718;8.938;2023-08-01T02:40:49;15.20;99.90
26691;DHT22;14307;51.718;8.938;2023-08-01T02:43:15;15.20;99.90
26691;DHT22;14307;51.718;8.938;2023-08-01T02:45:43;15.20;99.90
26691;DHT22;14307;51.718;8.938;2023-08-01T02:48:11;15.20;99.90
26691;DHT22;14307;51.718;8.938;2023-08-01T02:50:37;15.20;99.90
26691;DHT22;14307;51.718;8.938;2023-08-01T02:53:05;15.20;99.90
26691;DHT22;14307;51.718;8.938;2023-08-01T02:55:31;15.20;99.90
26691;DHT22;14307;51.718;8.938;2023-08-01T02:57:58;15.10;99.90
26691;DHT22;14307;51.718;8.938;2023-08-01T03:00:25;15.00;99.90
26691;DHT22;14307;51.718;8.938;2023-08-01T03:02:53;15.00;99.90
26691;DHT22;14307;51.718;8.938;2023-08-01T03:05:20;15.00;99.90
26691;DHT22;14307;51.718;8.938;2023-08-01T03:07:46;15.10;99.90
26691;DHT22;14307;51.718;8.938;2023-08-01T03:10:13;15.10;99.90
26691;DHT22;14307;51.718;8.938;2023-08-01T03:13:00;15.10;99.90
26691;DHT22;14307;51.718;8.938;2023-08-01T03:15:28;15.00;99.90
26691;DHT22;14307;51.718;8.938;2023-08-01T03:17:55;15.00;99.90
26691;DHT22;14307;51.718;8.938;2023-08-01T03:20:22;15.10;99.90
26691;DHT22;14307;51.718;8.938;2023-08-01T03:22:49;15.00;99.90
26691;DHT22;14307;51.718;8.938;2023-08-01T03:25:16;15.00;99.90
26691;DHT22;14307;51.718;8.938;2023-08-01T03:27:43;15.00;99.90
26691;DHT22;14307;51.718;8.938;2023-08-01T03:30:10;15.00;99.90
26691;DHT22;14307;51.718;8.938;2023-08-01T03:32:37;15.00;99.90
26691;DHT22;14307;51.718;8.938;2023-08-01T03:35:05;15.00;99.90
26691;DHT22;14307;51.718;8.938;2023-08-01T03:37:32;14.90;99.90
26691;DHT22;14307;51.718;8.938;2023-08-01T03:39:59;14.90;99.90
26691;DHT22;14307;51.718;8.938;2023-08-01T03:42:26;14.90;99.90
26691;DHT22;14307;51.718;8.938;2023-08-01T03:44:53;14.90;99.90
26691;DHT22;14307;51.718;8.938;2023-08-01T03:47:20;14.90;99.90
26691;DHT22;14307;51.718;8.938;2023-08-01T03:49:47;15.00;99.90
26691;DHT22;14307;51.718;8.938;2023-08-01T03:52:14;14.90;99.90
26691;DHT22;14307;51.718;8.938;2023-08-01T03:54:41;14.80;99.90
26691;DHT22;14307;51.718;8.938;2023-08-01T03:57:08;14.80;99.90
26691;DHT22;14307;51.718;8.938;2023-08-01T03:59:34;14.80;99.90
26691;DHT22;14307;51.718;8.938;2023-08-01T04:02:03;14.80;99.90
26691;DHT22;14307;51.718;8.938;2023-08-01T04:04:30;14.80;99.90
26691;DHT22;14307;51.718;8.938;2023-08-01T04:06:58;14.80;99.90
26691;DHT22;14307;51.718;8.938;2023-08-01T04:09:25;14.80;99.90
26691;DHT22;14307;51.718;8.938;2023-08-01T04:11:51;14.70;99.90
26691;DHT22;14307;51.718;8.938;2023-08-01T04:14:18;14.80;99.90
26691;DHT22;14307;51.718;8.938;2023-08-01T04:16:45;14.80;99.90
26691;DHT22;14307;51.718;8.938;2023-08-01T04:19:12;14.70;99.90
26691;DHT22;14307;51.718;8.938;2023-08-01T04:21:39;14.60;99.90
26691;DHT22;14307;51.718;8.938;2023-08-01T04:24:06;14.70;99.90
26691;DHT22;14307;51.718;8.938;2023-08-01T04:26:33;14.60;99.90
26691;DHT22;14307;51.718;8.938;2023-08-01T04:29:00;14.60;99.90
26691;DHT22;14307;51.718;8.938;2023-08-01T04:31:27;14.60;99.90
26691;DHT22;14307;51.718;8.938;2023-08-01T04:33:54;14.50;99.90
26691;DHT22;14307;51.718;8.938;2023-08-01T04:36:21;14.50;99.90
26691;DHT22;14307;51.718;8.938;2023-08-01T04:38:48;14.60;99.90
26691;DHT22;14307;51.718;8.938;2023-08-01T04:41:15;14.60;99.90
26691;DHT22;14307;51.718;8.938;2023-08-01T04:43:42;14.50;99.90
26691;DHT22;14307;51.718;8.938;2023-08-01T04:46:09;14.50;99.90
26691;DHT22;14307;51.718;8.938;2023-08-01T04:48:39;14.50;99.90
26691;DHT22;14307;51.718;8.938;2023-08-01T04:51:06;14.50;99.90
26691;DHT22;14307;51.718;8.938;2023-08-01T04:53:33;14.60;99.90
26691;DHT22;14307;51.718;8.938;2023-08-01T04:55:59;14.60;99.90
26691;DHT22;14307;51.718;8.938;2023-08-01T04:58:26;14.60;99.90
26691;DHT22;14307;51.718;8.938;2023-08-01T05:00:53;14.60;99.90
26691;DHT22;14307;51.718;8.938;2023-08-01T05:03:20;14.60;99.90
26691;DHT22;14307;51.718;8.938;2023-08-01T05:05:47;14.60;99.90
26691;DHT22;14307;51.718;8.938;2023-08-01T05:08:14;14.50;99.90
26691;DHT22;14307;51.718;8.938;2023-08-01T05:10:41;14.50;99.90
26691;DHT22;14307;51.718;8.938;2023-08-01T05:13:07;14.50;99.90
26691;DHT22;14307;51.718;8.938;2023-08-01T05:15:34;14.40;99.90
26691;DHT22;14307;51.718;8.938;2023-08-01T05:18:01;14.40;99.90
26691;DHT22;14307;51.718;8.938;2023-08-01T05:20:28;14.50;99.90
26691;DHT22;14307;51.718;8.938;2023-08-01T05:22:58;14.40;99.90
26691;DHT22;14307;51.718;8.938;2023-08-01T05:25:25;14.40;99.90
26691;DHT22;14307;51.718;8.938;2023-08-01T05:27:52;14.40;99.90
26691;DHT22;14307;51.718;8.938;2023-08-01T05:30:19;14.40;99.90
26691;DHT22;14307;51.718;8.938;2023-08-01T05:32:46;14.40;99.90
26691;DHT22;14307;51.718;8.938;2023-08-01T05:35:13;14.50;99.90
26691;DHT22;14307;51.718;8.938;2023-08-01T05:37:40;14.50;99.90
26691;DHT22;14307;51.718;8.938;2023-08-01T05:40:08;14.50;99.90
26691;DHT22;14307;51.718;8.938;2023-08-01T05:42:35;14.60;99.90
26691;DHT22;14307;51.718;8.938;2023-08-01T05:45:01;14.60;99.90
26691;DHT22;14307;51.718;8.938;2023-08-01T05:47:30;14.60;99.90
26691;DHT22;14307;51.718;8.938;2023-08-01T05:49:57;14.50;99.90
26691;DHT22;14307;51.718;8.938;2023-08-01T05:52:24;14.40;99.90
26691;DHT22;14307;51.718;8.938;2023-08-01T05:54:51;14.50;99.90
26691;DHT22;14307;51.718;8.938;2023-08-01T05:57:18;14.50;99.90
26691;DHT22;14307;51.718;8.938;2023-08-01T05:59:45;14.50;99.90
26691;DHT22;14307;51.718;8.938;2023-08-01T06:02:12;14.60;99.90
26691;DHT22;14307;51.718;8.938;2023-08-01T06:04:39;14.60;99.90
26691;DHT22;14307;51.718;8.938;2023-08-01T06:07:06;14.50;99.90
26691;DHT22;14307;51.718;8.938;2023-08-01T06:09:33;14.60;99.90
26691;DHT22;14307;51.718;8.938;2023-08-01T06:12:00;14.60;99.90
26691;DHT22;14307;51.718;8.938;2023-08-01T06:14:27;14.70;99.90
26691;DHT22;14307;51.718;8.938;2023-08-01T06:16:54;14.50;99.90
26691;DHT22;14307;51.718;8.938;2023-08-01T06:19:21;14.60;99.90
26691;DHT22;14307;51.718;8.938;2023-08-01T06:21:48;14.60;99.90
26691;DHT22;14307;51.718;8.938;2023-08-01T06:24:14;14.60;99.90
26691;DHT22;14307;51.718;8.938;2023-08-01T06:26:41;14.60;99.90
26691;DHT22;14307;51.718;8.938;2023-08-01T06:29:09;14.60;99.90
26691;DHT22;14307;51.718;8.938;2023-08-01T06:31:36;14.50;99.90
26691;DHT22;14307;51.718;8.938;2023-08-01T06:34:03;14.30;99.90
26691;DHT22;14307;51.718;8.938;2023-08-01T06:36:30;14.10;99.90
26691;DHT22;14307;51.718;8.938;2023-08-01T06:38:58;14.00;99.90
26691;DHT22;14307;51.718;8.938;2023-08-01T06:41:25;14.00;99.90
26691;DHT22;14307;51.718;8.938;2023-08-01T06:43:52;14.00;99.90
26691;DHT22;14307;51.718;8.938;2023-08-01T06:46:19;14.10;99.90
26691;DHT22;14307;51.718;8.938;2023-08-01T06:48:46;14.10;99.90
26691;DHT22;14307;51.718;8.938;2023-08-01T06:51:13;14.10;99.90
26691;DHT22;14307;51.718;8.938;2023-08-01T06:53:40;14.10;99.90
26691;DHT22;14307;51.718;8.938;2023-08-01T06:56:06;14.10;99.90
26691;DHT22;14307;51.718;8.938;2023-08-01T06:58:33;14.10;99.90
26691;DHT22;14307;51.718;8.938;2023-08-01T07:01:00;14.20;99.90
26691;DHT22;14307;51.718;8.938;2023-08-01T07:03:27;14.20;99.90
26691;DHT22;14307;51.718;8.938;2023-08-01T07:05:54;14.10;99.90
26691;DHT22;14307;51.718;8.938;2023-08-01T07:08:21;14.20;99.90
26691;DHT22;14307;51.718;8.938;2023-08-01T07:10:51;14.20;99.90
26691;DHT22;14307;51.718;8.938;2023-08-01T07:13:18;14.30;99.90
26691;DHT22;14307;51.718;8.938;2023-08-01T07:15:46;14.40;99.90
26691;DHT22;14307;51.718;8.938;2023-08-01T07:18:13;14.40;99.90
26691;DHT22;14307;51.718;8.938;2023-08-01T07:20:40;14.30;99.90
26691;DHT22;14307;51.718;8.938;2023-08-01T07:23:07;14.50;99.90
26691;DHT22;14307;51.718;8.938;2023-08-01T07:25:34;14.50;99.90
26691;DHT22;14307;51.718;8.938;2023-08-01T07:28:02;14.50;99.90
26691;DHT22;14307;51.718;8.938;2023-08-01T07:30:29;14.50;99.90
26691;DHT22;14307;51.718;8.938;2023-08-01T07:32:56;14.50;99.90
26691;DHT22;14307;51.718;8.938;2023-08-01T07:35:23;14.60;99.90
26691;DHT22;14307;51.718;8.938;2023-08-01T07:37:50;14.60;99.90
26691;DHT22;14307;51.718;8.938;2023-08-01T07:40:17;14.50;99.90
26691;DHT22;14307;51.718;8.938;2023-08-01T07:42:43;14.60;99.90
26691;DHT22;14307;51.718;8.938;2023-08-01T07:45:10;14.70;99.90
26691;DHT22;14307;51.718;8.938;2023-08-01T07:47:37;14.80;99.90
26691;DHT22;14307;51.718;8.938;2023-08-01T07:50:04;14.90;99.90
26691;DHT22;14307;51.718;8.938;2023-08-01T07:52:31;14.90;99.90
26691;DHT22;14307;51.718;8.938;2023-08-01T07:54:58;15.00;99.90
26691;DHT22;14307;51.718;8.938;2023-08-01T07:57:25;15.00;99.90
26691;DHT22;14307;51.718;8.938;2023-08-01T07:59:52;15.10;99.90
26691;DHT22;14307;51.718;8.938;2023-08-01T08:02:19;15.10;99.90
26691;DHT22;14307;51.718;8.938;2023-08-01T08:04:46;15.00;99.90
26691;DHT22;14307;51.718;8.938;2023-08-01T08:07:13;15.00;99.90
26691;DHT22;14307;51.718;8.938;2023-08-01T08:09:40;14.90;99.90
26691;DHT22;14307;51.718;8.938;2023-08-01T08:12:07;15.10;99.90
26691;DHT22;14307;51.718;8.938;2023-08-01T08:14:34;15.30;99.90
26691;DHT22;14307;51.718;8.938;2023-08-01T08:17:01;15.30;99.90
26691;DHT22;14307;51.718;8.938;2023-08-01T08:19:28;15.30;99.90
26691;DHT22;14307;51.718;8.938;2023-08-01T08:21:55;15.20;99.90
26691;DHT22;14307;51.718;8.938;2023-08-01T08:24:22;15.20;99.90
26691;DHT22;14307;51.718;8.938;2023-08-01T08:26:49;15.40;99.90
26691;DHT22;14307;51.718;8.938;2023-08-01T08:29:16;15.30;99.90
26691;DHT22;14307;51.718;8.938;2023-08-01T08:31:43;15.50;99.90
26691;DHT22;14307;51.718;8.938;2023-08-01T08:34:10;15.70;99.90
26691;DHT22;14307;51.718;8.938;2023-08-01T08:36:36;15.80;99.90
26691;DHT22;14307;51.718;8.938;2023-08-01T08:39:03;15.90;99.90
26691;DHT22;14307;51.718;8.938;2023-08-01T08:41:37;15.90;99.90
26691;DHT22;14307;51.718;8.938;2023-08-01T08:44:07;16.00;99.90
26691;DHT22;14307;51.718;8.938;2023-08-01T08:46:43;16.00;99.90
26691;DHT22;14307;51.718;8.938;2023-08-01T08:49:11;15.90;99.90
26691;DHT22;14307;51.718;8.938;2023-08-01T08:51:38;15.70;99.90
26691;DHT22;14307;51.718;8.938;2023-08-01T08:54:06;15.60;99.90
26691;DHT22;14307;51.718;8.938;2023-08-01T08:56:34;15.40;99.90
26691;DHT22;14307;51.718;8.938;2023-08-01T08:59:02;15.70;99.90
26691;DHT22;14307;51.718;8.938;2023-08-01T09:01:29;15.70;99.90
26691;DHT22;14307;51.718;8.938;2023-08-01T09:03:57;15.50;99.90
26691;DHT22;14307;51.718;8.938;2023-08-01T09:06:32;15.20;99.90
26691;DHT22;14307;51.718;8.938;2023-08-01T09:09:12;15.00;99.90
26691;DHT22;14307;51.718;8.938;2023-08-01T09:11:51;15.00;99.90
26691;DHT22;14307;51.718;8.938;2023-08-01T09:14:19;15.10;99.90
26691;DHT22;14307;51.718;8.938;2023-08-01T09:16:46;15.40;99.90
26691;DHT22;14307;51.718;8.938;2023-08-01T09:19:32;15.50;99.90
26691;DHT22;14307;51.718;8.938;2023-08-01T09:21:59;15.90;99.90
26691;DHT22;14307;51.718;8.938;2023-08-01T09:24:26;15.70;99.90
26691;DHT22;14307;51.718;8.938;2023-08-01T09:27:02;15.60;99.90
26691;DHT22;14307;51.718;8.938;2023-08-01T09:29:31;15.70;99.90
26691;DHT22;14307;51.718;8.938;2023-08-01T09:32:00;15.70;99.90
26691;DHT22;14307;51.718;8.938;2023-08-01T09:34:27;15.70;99.90
26691;DHT22;14307;51.718;8.938;2023-08-01T09:36:58;15.90;99.90
26691;DHT22;14307;51.718;8.938;2023-08-01T09:39:26;16.10;99.90
26691;DHT22;14307;51.718;8.938;2023-08-01T09:42:00;16.30;99.90
26691;DHT22;14307;51.718;8.938;2023-08-01T09:44:28;16.50;99.90
26691;DHT22;14307;51.718;8.938;2023-08-01T09:47:03;16.90;99.90
26691;DHT22;14307;51.718;8.938;2023-08-01T09:49:31;16.90;99.90
26691;DHT22;14307;51.718;8.938;2023-08-01T09:52:04;16.70;99.90
26691;DHT22;14307;51.718;8.938;2023-08-01T09:54:31;16.70;99.90
26691;DHT22;14307;51.718;8.938;2023-08-01T09:57:00;16.60;99.90
26691;DHT22;14307;51.718;8.938;2023-08-01T09:59:28;16.50;99.90
26691;DHT22;14307;51.718;8.938;2023-08-01T10:01:57;16.40;99.90
26691;DHT22;14307;51.718;8.938;2023-08-01T10:04:36;16.30;99.90
26691;DHT22;14307;51.718;8.938;2023-08-01T10:07:08;16.10;99.90
26691;DHT22;14307;51.718;8.938;2023-08-01T10:09:38;15.90;99.90
26691;DHT22;14307;51.718;8.938;2023-08-01T10:12:07;16.00;99.90
26691;DHT22;14307;51.718;8.938;2023-08-01T10:14:35;16.20;99.90
26691;DHT22;14307;51.718;8.938;2023-08-01T10:17:03;16.70;99.90
26691;DHT22;14307;51.718;8.938;2023-08-01T10:19:32;17.20;99.90
26691;DHT22;14307;51.718;8.938;2023-08-01T10:22:00;17.20;99.90
26691;DHT22;14307;51.718;8.938;2023-08-01T10:24:28;17.00;99.90
26691;DHT22;14307;51.718;8.938;2023-08-01T10:26:55;16.60;99.90
26691;DHT22;14307;51.718;8.938;2023-08-01T10:29:34;16.30;99.90
26691;DHT22;14307;51.718;8.938;2023-08-01T10:32:01;16.40;99.90
26691;DHT22;14307;51.718;8.938;2023-08-01T10:34:28;16.50;99.90
26691;DHT22;14307;51.718;8.938;2023-08-01T10:36:57;16.70;99.90
26691;DHT22;14307;51.718;8.938;2023-08-01T10:39:26;16.80;99.90
26691;DHT22;14307;51.718;8.938;2023-08-01T10:42:04;17.00;99.90
26691;DHT22;14307;51.718;8.938;2023-08-01T10:44:32;17.30;99.90
26691;DHT22;14307;51.718;8.938;2023-08-01T10:47:03;17.30;99.90
26691;DHT22;14307;51.718;8.938;2023-08-01T10:49:41;17.30;99.90
26691;DHT22;14307;51.718;8.938;2023-08-01T10:52:16;17.40;99.90
26691;DHT22;14307;51.718;8.938;2023-08-01T10:54:44;17.50;99.90
26691;DHT22;14307;51.718;8.938;2023-08-01T10:57:18;17.90;99.90
26691;DHT22;14307;51.718;8.938;2023-08-01T10:59:47;17.90;99.90
26691;DHT22;14307;51.718;8.938;2023-08-01T11:02:20;18.00;99.90
26691;DHT22;14307;51.718;8.938;2023-08-01T11:04:58;18.30;99.90
26691;DHT22;14307;51.718;8.938;2023-08-01T11:07:26;18.40;99.90
26691;DHT22;14307;51.718;8.938;2023-08-01T11:10:12;18.80;99.90
26691;DHT22;14307;51.718;8.938;2023-08-01T11:12:43;19.30;99.90
26691;DHT22;14307;51.718;8.938;2023-08-01T11:15:12;19.30;99.90
26691;DHT22;14307;51.718;8.938;2023-08-01T11:17:42;19.00;99.90
26691;DHT22;14307;51.718;8.938;2023-08-01T11:20:12;19.00;99.90
26691;DHT22;14307;51.718;8.938;2023-08-01T11:22:53;18.70;99.90
26691;DHT22;14307;51.718;8.938;2023-08-01T11:25:42;18.50;99.90
26691;DHT22;14307;51.718;8.938;2023-08-01T11:28:14;18.90;99.90
26691;DHT22;14307;51.718;8.938;2023-08-01T11:30:45;19.10;99.90
26691;DHT22;14307;51.718;8.938;2023-08-01T11:33:23;19.30;99.90
26691;DHT22;14307;51.718;8.938;2023-08-01T11:35:51;19.30;99.90
26691;DHT22;14307;51.718;8.938;2023-08-01T11:38:22;19.20;99.90
26691;DHT22;14307;51.718;8.938;2023-08-01T11:40:51;19.40;99.90
26691;DHT22;14307;51.718;8.938;2023-08-01T11:43:18;19.00;99.90
26691;DHT22;14307;51.718;8.938;2023-08-01T11:45:53;18.80;99.90
26691;DHT22;14307;51.718;8.938;2023-08-01T11:48:26;18.80;99.90
26691;DHT22;14307;51.718;8.938;2023-08-01T11:51:09;18.70;99.90
26691;DHT22;14307;51.718;8.938;2023-08-01T11:55:25;18.60;99.90
26691;DHT22;14307;51.718;8.938;2023-08-01T11:57:58;18.20;99.90
26691;DHT22;14307;51.718;8.938;2023-08-01T12:00:28;17.60;99.90
26691;DHT22;14307;51.718;8.938;2023-08-01T12:05:32;17.10;99.90
26691;DHT22;14307;51.718;8.938;2023-08-01T12:08:13;16.90;99.90
26691;DHT22;14307;51.718;8.938;2023-08-01T12:10:45;16.80;99.90
26691;DHT22;14307;51.718;8.938;2023-08-01T12:13:25;16.90;99.90
26691;DHT22;14307;51.718;8.938;2023-08-01T12:15:54;17.00;99.90
26691;DHT22;14307;51.718;8.938;2023-08-01T12:18:25;16.90;99.90
26691;DHT22;14307;51.718;8.938;2023-08-01T12:20:56;17.00;99.90
26691;DHT22;14307;51.718;8.938;2023-08-01T12:23:23;17.00;99.90
26691;DHT22;14307;51.718;8.938;2023-08-01T12:25:49;17.10;99.90
26691;DHT22;14307;51.718;8.938;2023-08-01T12:28:16;17.00;99.90
26691;DHT22;14307;51.718;8.938;2023-08-01T12:30:43;16.90;99.90
26691;DHT22;14307;51.718;8.938;2023-08-01T12:33:11;16.90;99.90
26691;DHT22;14307;51.718;8.938;2023-08-01T12:35:41;17.10;99.90
26691;DHT22;14307;51.718;8.938;2023-08-01T12:38:08;17.50;99.90
26691;DHT22;14307;51.718;8.938;2023-08-01T12:40:36;17.40;99.90
26691;DHT22;14307;51.718;8.938;2023-08-01T12:43:03;17.20;99.90
26691;DHT22;14307;51.718;8.938;2023-08-01T12:45:30;17.00;99.90
26691;DHT22;14307;51.718;8.938;2023-08-01T12:47:56;16.60;99.90
26691;DHT22;14307;51.718;8.938;2023-08-01T12:50:23;16.30;99.90
26691;DHT22;14307;51.718;8.938;2023-08-01T12:52:50;16.10;99.90
26691;DHT22;14307;51.718;8.938;2023-08-01T12:55:17;16.00;99.90
26691;DHT22;14307;51.718;8.938;2023-08-01T12:57:44;16.00;99.90
26691;DHT22;14307;51.718;8.938;2023-08-01T13:00:11;15.90;99.90
26691;DHT22;14307;51.718;8.938;2023-08-01T13:02:38;15.90;99.90
26691;DHT22;14307;51.718;8.938;2023-08-01T13:05:05;16.30;99.90
26691;DHT22;14307;51.718;8.938;2023-08-01T13:07:32;16.80;99.90
26691;DHT22;14307;51.718;8.938;2023-08-01T13:09:59;17.30;99.90
26691;DHT22;14307;51.718;8.938;2023-08-01T13:12:26;17.60;99.90
26691;DHT22;14307;51.718;8.938;2023-08-01T13:14:53;17.80;99.90
26691;DHT22;14307;51.718;8.938;2023-08-01T13:17:40;17.60;99.90
26691;DHT22;14307;51.718;8.938;2023-08-01T13:20:07;17.60;99.90
26691;DHT22;14307;51.718;8.938;2023-08-01T13:22:34;17.60;99.90
26691;DHT22;14307;51.718;8.938;2023-08-01T13:25:03;17.60;99.90
26691;DHT22;14307;51.718;8.938;2023-08-01T13:27:34;17.50;99.90
26691;DHT22;14307;51.718;8.938;2023-08-01T13:30:02;17.50;99.90
26691;DHT22;14307;51.718;8.938;2023-08-01T13:32:29;17.50;99.90
26691;DHT22;14307;51.718;8.938;2023-08-01T13:34:56;17.50;99.90
26691;DHT22;14307;51.718;8.938;2023-08-01T13:37:22;17.60;99.90
26691;DHT22;14307;51.718;8.938;2023-08-01T13:39:49;17.70;99.90
26691;DHT22;14307;51.718;8.938;2023-08-01T13:42:16;17.70;99.90
26691;DHT22;14307;51.718;8.938;2023-08-01T13:44:42;18.10;99.90
26691;DHT22;14307;51.718;8.938;2023-08-01T13:47:10;18.50;99.90
26691;DHT22;14307;51.718;8.938;2023-08-01T13:49:37;18.80;99.90
26691;DHT22;14307;51.718;8.938;2023-08-01T13:52:04;18.80;99.90
26691;DHT22;14307;51.718;8.938;2023-08-01T13:54:32;18.50;99.90
26691;DHT22;14307;51.718;8.938;2023-08-01T13:56:59;18.50;99.90
26691;DHT22;14307;51.718;8.938;2023-08-01T13:59:26;18.70;99.90
26691;DHT22;14307;51.718;8.938;2023-08-01T14:01:53;18.60;99.90
26691;DHT22;14307;51.718;8.938;2023-08-01T14:04:20;18.50;99.90
26691;DHT22;14307;51.718;8.938;2023-08-01T14:06:47;18.30;99.90
26691;DHT22;14307;51.718;8.938;2023-08-01T14:09:14;18.20;99.90
26691;DHT22;14307;51.718;8.938;2023-08-01T14:11:41;18.30;99.90
26691;DHT22;14307;51.718;8.938;2023-08-01T14:14:07;18.30;99.90
26691;DHT22;14307;51.718;8.938;2023-08-01T14:16:34;18.40;99.90
26691;DHT22;14307;51.718;8.938;2023-08-01T14:19:01;18.30;99.90
26691;DHT22;14307;51.718;8.938;2023-08-01T14:21:30;18.60;99.90
26691;DHT22;14307;51.718;8.938;2023-08-01T14:23:57;18.90;99.90
26691;DHT22;14307;51.718;8.938;2023-08-01T14:26:24;19.20;99.90
26691;DHT22;14307;51.718;8.938;2023-08-01T14:28:51;19.00;99.90
26691;DHT22;14307;51.718;8.938;2023-08-01T14:31:18;19.00;99.90
26691;DHT22;14307;51.718;8.938;2023-08-01T14:33:45;19.20;99.90
26691;DHT22;14307;51.718;8.938;2023-08-01T14:36:12;19.00;99.90
26691;DHT22;14307;51.718;8.938;2023-08-01T14:38:39;18.90;99.90
26691;DHT22;14307;51.718;8.938;2023-08-01T14:41:06;18.90;99.90
26691;DHT22;14307;51.718;8.938;2023-08-01T14:43:53;18.90;99.90
26691;DHT22;14307;51.718;8.938;2023-08-01T14:46:19;18.90;99.90
26691;DHT22;14307;51.718;8.938;2023-08-01T14:48:46;18.80;99.90
26691;DHT22;14307;51.718;8.938;2023-08-01T14:51:13;18.80;99.90
26691;DHT22;14307;51.718;8.938;2023-08-01T14:53:40;18.80;99.90
26691;DHT22;14307;51.718;8.938;2023-08-01T14:56:06;19.00;99.90
26691;DHT22;14307;51.718;8.938;2023-08-01T14:58:34;19.20;99.90
26691;DHT22;14307;51.718;8.938;2023-08-01T15:01:12;19.20;99.90
26691;DHT22;14307;51.718;8.938;2023-08-01T15:03:39;18.90;99.90
26691;DHT22;14307;51.718;8.938;2023-08-01T15:06:07;19.00;99.90
26691;DHT22;14307;51.718;8.938;2023-08-01T15:08:34;19.10;99.90
26691;DHT22;14307;51.718;8.938;2023-08-01T15:11:05;19.40;99.90
26691;DHT22;14307;51.718;8.938;2023-08-01T15:13:32;19.60;99.90
26691;DHT22;14307;51.718;8.938;2023-08-01T15:16:01;19.50;99.90
26691;DHT22;14307;51.718;8.938;2023-08-01T15:18:28;19.40;99.90
26691;DHT22;14307;51.718;8.938;2023-08-01T15:20:55;19.20;99.90
26691;DHT22;14307;51.718;8.938;2023-08-01T15:23:22;19.10;99.90
26691;DHT22;14307;51.718;8.938;2023-08-01T15:25:57;19.20;99.90
26691;DHT22;14307;51.718;8.938;2023-08-01T15:28:24;19.30;99.90
26691;DHT22;14307;51.718;8.938;2023-08-01T15:31:08;19.40;99.90
26691;DHT22;14307;51.718;8.938;2023-08-01T15:33:37;19.00;99.90
26691;DHT22;14307;51.718;8.938;2023-08-01T15:36:05;18.80;99.90
26691;DHT22;14307;51.718;8.938;2023-08-01T15:38:34;18.60;99.90
26691;DHT22;14307;51.718;8.938;2023-08-01T15:41:01;18.50;99.90
26691;DHT22;14307;51.718;8.938;2023-08-01T15:43:39;18.60;99.90